Time;durP1;ratioP1;P1;durP2;ratioP2;P2;SDS_P1;SDS_P2;PMS_P1;PMS_P2;Temp;Humidity;BMP_temperature;BMP_pressure;BME280_temperature;BME280_humidity;BME280_pressure;Samples;Min_cycle;Max_cycle;Signal;HPM_P1;HPM_P2
2023/11/26 00:00:14;;;;;;;4.90;2.23;;;1.10;99.90;;;;;;4912762;29;20218;-89
2023/11/26 00:02:40;;;;;;;4.43;2.10;;;1.20;99.90;;;;;;4911933;29;20195;-87
2023/11/26 00:07:41;;;;;;;5.13;2.00;;;1.20;99.90;;;;;;5071028;23;20594;-88
2023/11/26 00:10:08;;;;;;;3.37;2.10;;;1.10;99.90;;;;;;4938802;29;20181;-89
2023/11/26 00:12:34;;;;;;;4.27;1.90;;;1.10;99.90;;;;;;4921167;29;20186;-87
2023/11/26 00:15:00;;;;;;;4.13;2.10;;;1.20;99.90;;;;;;4938849;29;20245;-89
2023/11/26 00:17:25;;;;;;;5.30;2.23;;;1.10;99.90;;;;;;4921555;29;20241;-90
2023/11/26 00:19:51;;;;;;;4.70;1.77;;;1.10;99.90;;;;;;4912305;29;20178;-89
2023/11/26 00:22:17;;;;;;;3.47;2.17;;;1.20;99.90;;;;;;4921290;29;20693;-87
2023/11/26 00:24:43;;;;;;;3.87;2.30;;;1.10;99.90;;;;;;4921490;29;20605;-89
2023/11/26 00:27:09;;;;;;;5.70;2.10;;;1.10;99.90;;;;;;4918459;29;20273;-89
2023/11/26 00:29:40;;;;;;;4.03;2.30;;;1.10;99.90;;;;;;4921686;29;20325;-89
2023/11/26 00:32:09;;;;;;;5.10;2.40;;;1.10;99.90;;;;;;4921648;29;20405;-88
2023/11/26 00:34:38;;;;;;;4.73;2.70;;;1.20;99.90;;;;;;4921550;29;20189;-88
2023/11/26 00:37:04;;;;;;;5.10;2.33;;;1.20;99.90;;;;;;4920604;29;20661;-88
2023/11/26 00:39:29;;;;;;;5.40;3.30;;;1.20;99.90;;;;;;4914168;29;20221;-91
2023/11/26 00:41:56;;;;;;;5.57;2.70;;;1.10;99.90;;;;;;4919289;29;20234;-90
2023/11/26 00:44:25;;;;;;;5.63;3.20;;;1.10;99.90;;;;;;4905394;29;20213;-89
2023/11/26 00:46:52;;;;;;;4.40;3.10;;;1.10;99.90;;;;;;4920976;29;20644;-88
2023/11/26 00:49:18;;;;;;;4.80;2.97;;;1.10;99.90;;;;;;4938056;29;20186;-88
2023/11/26 00:51:44;;;;;;;6.80;2.80;;;1.10;99.90;;;;;;4920469;29;20189;-91
2023/11/26 00:54:09;;;;;;;4.33;2.73;;;1.10;99.90;;;;;;4920296;29;20553;-87
2023/11/26 00:56:36;;;;;;;7.93;3.07;;;1.10;99.90;;;;;;4920911;29;20323;-88
2023/11/26 00:59:02;;;;;;;6.17;3.20;;;1.00;99.90;;;;;;4920733;29;20280;-88
2023/11/26 01:01:28;;;;;;;7.57;2.77;;;1.00;99.90;;;;;;4920687;29;20285;-87
2023/11/26 01:03:54;;;;;;;8.13;2.40;;;0.90;99.90;;;;;;4920869;29;20202;-88
2023/11/26 01:06:20;;;;;;;5.73;2.50;;;0.90;99.90;;;;;;4920430;29;20694;-88
2023/11/26 01:08:46;;;;;;;8.37;2.40;;;0.90;99.90;;;;;;4920422;29;20668;-88
2023/11/26 01:11:12;;;;;;;5.30;2.30;;;0.80;99.90;;;;;;4920825;29;20196;-88
2023/11/26 01:13:39;;;;;;;5.70;2.77;;;0.80;99.90;;;;;;4920683;29;20284;-88
2023/11/26 01:16:05;;;;;;;8.00;2.43;;;0.70;99.90;;;;;;4920582;29;20201;-87
2023/11/26 01:18:31;;;;;;;6.30;3.00;;;0.70;99.90;;;;;;4920116;29;20220;-87
2023/11/26 01:20:57;;;;;;;7.50;3.00;;;0.70;99.90;;;;;;4918385;29;20193;-87
2023/11/26 01:23:23;;;;;;;4.60;3.00;;;0.70;99.90;;;;;;4920032;29;20190;-87
2023/11/26 01:25:49;;;;;;;8.67;3.00;;;0.60;99.90;;;;;;4920717;29;20244;-87
2023/11/26 01:28:15;;;;;;;4.23;2.40;;;0.50;99.90;;;;;;4920525;29;20280;-87
2023/11/26 01:30:41;;;;;;;7.17;2.70;;;0.50;99.90;;;;;;4920292;29;20276;-85
2023/11/26 01:33:07;;;;;;;7.10;3.57;;;0.50;99.90;;;;;;4920480;29;20197;-87
2023/11/26 01:35:34;;;;;;;8.77;3.70;;;0.50;99.90;;;;;;4920098;29;20189;-87
2023/11/26 01:38:00;;;;;;;5.67;2.90;;;0.50;99.90;;;;;;4919827;29;20660;-87
2023/11/26 01:40:26;;;;;;;4.40;3.00;;;0.50;99.90;;;;;;4919882;29;20186;-87
2023/11/26 01:42:52;;;;;;;3.90;2.67;;;0.50;99.90;;;;;;4919957;29;20189;-87
2023/11/26 01:45:18;;;;;;;6.53;3.10;;;0.50;99.90;;;;;;4919829;29;20525;-87
2023/11/26 01:47:44;;;;;;;7.03;3.03;;;0.50;99.90;;;;;;4937027;29;20209;-85
2023/11/26 01:50:20;;;;;;;2.87;2.10;;;0.50;99.90;;;;;;4919940;29;20192;-86
2023/11/26 01:52:48;;;;;;;5.00;2.50;;;0.40;99.90;;;;;;4936485;29;20220;-85
2023/11/26 01:55:16;;;;;;;4.10;2.30;;;0.50;99.90;;;;;;4919631;29;20182;-86
2023/11/26 01:57:42;;;;;;;8.13;2.77;;;0.40;99.90;;;;;;4918927;29;20218;-86
2023/11/26 02:00:09;;;;;;;4.47;2.30;;;0.30;99.90;;;;;;4919742;29;20628;-86
2023/11/26 02:02:34;;;;;;;3.40;2.30;;;0.30;99.90;;;;;;4919462;29;20324;-86
2023/11/26 02:05:02;;;;;;;4.73;2.73;;;0.20;99.90;;;;;;4919853;29;20225;-86
2023/11/26 02:07:27;;;;;;;4.53;2.37;;;0.30;99.90;;;;;;4919241;29;20237;-86
2023/11/26 02:09:53;;;;;;;6.70;2.77;;;0.30;99.90;;;;;;4919677;29;20312;-86
2023/11/26 02:12:19;;;;;;;5.60;2.70;;;0.20;99.90;;;;;;4919180;29;20185;-86
2023/11/26 02:14:48;;;;;;;3.97;2.60;;;0.20;99.90;;;;;;4919689;29;20192;-86
2023/11/26 02:17:15;;;;;;;6.53;2.50;;;0.20;99.90;;;;;;4919457;29;20744;-86
2023/11/26 02:19:41;;;;;;;4.33;2.67;;;0.30;99.90;;;;;;4919564;29;20201;-86
2023/11/26 02:22:08;;;;;;;7.17;3.10;;;0.30;99.90;;;;;;4928675;29;20186;-86
2023/11/26 02:24:52;;;;;;;7.93;2.40;;;0.30;99.90;;;;;;4919492;29;20240;-86
2023/11/26 02:27:18;;;;;;;5.83;2.53;;;0.30;99.90;;;;;;4913325;29;20185;-85
2023/11/26 02:29:45;;;;;;;11.47;2.63;;;0.30;99.90;;;;;;4919177;29;20190;-85
2023/11/26 02:32:10;;;;;;;8.00;2.43;;;0.30;99.90;;;;;;4936372;29;20314;-85
2023/11/26 02:34:36;;;;;;;4.57;2.37;;;0.20;99.90;;;;;;4919410;29;20214;-85
2023/11/26 02:37:02;;;;;;;5.70;2.40;;;0.30;99.90;;;;;;4918969;29;20214;-87
2023/11/26 02:39:30;;;;;;;2.80;2.10;;;0.30;99.90;;;;;;4919464;29;20197;-86
2023/11/26 02:42:00;;;;;;;5.73;2.40;;;0.30;99.90;;;;;;4919206;29;20369;-85
2023/11/26 02:44:26;;;;;;;4.50;2.20;;;0.30;99.90;;;;;;4919215;29;20194;-86
2023/11/26 02:46:52;;;;;;;5.03;1.87;;;0.20;99.90;;;;;;4919175;29;20716;-86
2023/11/26 02:49:18;;;;;;;6.53;2.40;;;0.20;99.90;;;;;;4919346;29;20230;-86
2023/11/26 02:51:45;;;;;;;5.83;2.57;;;0.20;99.90;;;;;;4935823;29;20185;-85
2023/11/26 02:54:10;;;;;;;4.77;2.50;;;0.20;99.90;;;;;;4919144;29;20193;-85
2023/11/26 02:56:36;;;;;;;5.30;2.65;;;0.20;99.90;;;;;;4936262;29;20193;-85
2023/11/26 02:59:02;;;;;;;5.40;2.77;;;0.20;99.90;;;;;;4918867;29;20233;-85
2023/11/26 03:01:29;;;;;;;8.23;2.90;;;0.20;99.90;;;;;;4936058;29;20182;-85
2023/11/26 03:03:55;;;;;;;6.20;2.67;;;0.20;99.90;;;;;;4936105;29;20186;-85
2023/11/26 03:06:26;;;;;;;5.80;2.43;;;0.20;99.90;;;;;;4918654;29;20240;-84
2023/11/26 03:09:09;;;;;;;7.00;2.83;;;0.20;99.90;;;;;;4918810;29;20193;-85
2023/11/26 03:14:19;;;;;;;6.40;2.33;;;0.10;99.90;;;;;;4936497;29;20185;-85
2023/11/26 03:16:45;;;;;;;7.13;2.80;;;0.00;99.90;;;;;;4918681;29;20209;-84
2023/11/26 03:19:14;;;;;;;7.67;2.83;;;0.00;99.90;;;;;;4918302;29;20193;-85
2023/11/26 03:21:48;;;;;;;6.90;2.57;;;0.10;99.90;;;;;;4918634;29;20186;-85
2023/11/26 03:24:15;;;;;;;6.80;2.93;;;0.10;99.90;;;;;;4920320;29;20193;-85
2023/11/26 03:26:41;;;;;;;4.00;2.67;;;0.10;99.90;;;;;;4922231;29;20209;-85
2023/11/26 03:29:07;;;;;;;13.60;5.20;;;0.10;99.90;;;;;;4921572;29;20632;-84
2023/11/26 03:31:34;;;;;;;7.83;4.00;;;0.10;99.90;;;;;;4922135;29;20273;-85
2023/11/26 03:34:00;;;;;;;9.63;4.67;;;0.00;99.90;;;;;;4922223;29;20198;-84
2023/11/26 03:36:25;;;;;;;5.73;3.00;;;0.00;99.90;;;;;;4938996;29;20587;-85
2023/11/26 03:38:52;;;;;;;4.50;2.80;;;0.00;99.90;;;;;;4921942;29;20650;-85
2023/11/26 03:41:18;;;;;;;4.83;3.03;;;0.00;99.90;;;;;;4938948;29;20182;-85
2023/11/26 03:43:44;;;;;;;9.00;3.40;;;-0.20;99.90;;;;;;4938916;29;20193;-85
2023/11/26 03:46:10;;;;;;;12.43;7.33;;;-0.10;99.90;;;;;;4921751;29;20692;-85
2023/11/26 03:48:36;;;;;;;7.50;3.80;;;-0.10;99.90;;;;;;4921368;29;20218;-84
2023/11/26 03:51:02;;;;;;;7.20;3.00;;;-0.20;99.90;;;;;;4921074;29;20605;-86
2023/11/26 03:53:28;;;;;;;4.73;3.03;;;-0.20;99.90;;;;;;4938243;29;20182;-85
2023/11/26 03:55:54;;;;;;;6.73;3.37;;;-0.20;99.90;;;;;;4921330;29;20268;-85
2023/11/26 03:58:20;;;;;;;5.40;3.10;;;-0.20;99.90;;;;;;4921142;29;20241;-85
2023/11/26 04:00:47;;;;;;;5.50;3.50;;;-0.20;99.90;;;;;;4921350;29;20635;-85
2023/11/26 04:03:13;;;;;;;6.77;3.53;;;-0.20;99.90;;;;;;4921475;29;20219;-86
2023/11/26 04:05:39;;;;;;;6.37;3.43;;;-0.20;99.90;;;;;;4921206;29;20190;-84
2023/11/26 04:08:04;;;;;;;7.90;4.17;;;-0.20;99.90;;;;;;4937636;29;20205;-86
2023/11/26 04:10:30;;;;;;;7.93;3.60;;;-0.20;99.90;;;;;;4920989;29;20204;-87
2023/11/26 04:12:56;;;;;;;6.53;3.53;;;-0.20;99.90;;;;;;4921281;29;20617;-85
2023/11/26 04:15:22;;;;;;;6.87;3.40;;;-0.20;99.90;;;;;;4920908;29;20194;-86
2023/11/26 04:17:49;;;;;;;6.77;3.73;;;-0.20;99.90;;;;;;4921228;29;20236;-86
2023/11/26 04:20:15;;;;;;;7.00;4.37;;;-0.20;99.90;;;;;;4938088;29;20613;-86
2023/11/26 04:22:40;;;;;;;8.87;3.60;;;-0.30;99.90;;;;;;4920614;29;20240;-87
2023/11/26 04:25:06;;;;;;;7.90;3.30;;;-0.30;99.90;;;;;;4920835;29;20243;-86
2023/11/26 04:27:32;;;;;;;5.57;3.40;;;-0.30;99.90;;;;;;4920869;29;20190;-85
2023/11/26 04:29:58;;;;;;;5.90;3.47;;;-0.30;99.90;;;;;;4921003;29;20202;-85
2023/11/26 04:32:24;;;;;;;10.20;3.60;;;-0.30;99.90;;;;;;4921084;29;20193;-86
2023/11/26 04:34:50;;;;;;;9.77;4.20;;;-0.40;99.90;;;;;;4920305;29;20280;-85
2023/11/26 04:37:15;;;;;;;5.73;4.00;;;-0.40;99.90;;;;;;4920673;29;20210;-86
2023/11/26 04:39:41;;;;;;;4.93;3.40;;;-0.30;99.90;;;;;;4920556;29;20250;-85
2023/11/26 04:42:07;;;;;;;9.77;3.60;;;-0.40;99.90;;;;;;4920552;29;20194;-86
2023/11/26 04:44:33;;;;;;;6.83;3.23;;;-0.40;99.90;;;;;;4937809;29;20579;-86
2023/11/26 04:46:59;;;;;;;6.00;3.53;;;-0.50;99.90;;;;;;4920283;29;20204;-86
2023/11/26 04:49:26;;;;;;;6.87;3.90;;;-0.50;99.90;;;;;;4920667;29;20200;-86
2023/11/26 04:51:52;;;;;;;4.80;3.30;;;-0.50;99.90;;;;;;4920227;29;20200;-86
2023/11/26 04:54:17;;;;;;;8.27;3.50;;;-0.50;99.90;;;;;;4937341;29;20197;-86
2023/11/26 04:56:43;;;;;;;8.27;4.37;;;-0.50;99.90;;;;;;4920468;29;20232;-85
2023/11/26 04:59:09;;;;;;;6.50;3.40;;;-0.60;99.90;;;;;;4919957;29;20614;-86
2023/11/26 05:01:43;;;;;;;7.00;3.53;;;-0.60;99.90;;;;;;4937070;29;20264;-87
2023/11/26 05:04:13;;;;;;;6.73;3.43;;;-0.60;99.90;;;;;;4920506;29;20249;-86
2023/11/26 05:06:39;;;;;;;6.90;3.23;;;-0.60;99.90;;;;;;4919788;29;20298;-86
2023/11/26 05:09:07;;;;;;;5.27;3.10;;;-0.50;99.90;;;;;;4920137;29;20193;-86
2023/11/26 05:11:33;;;;;;;7.20;4.10;;;-0.60;99.90;;;;;;4920275;29;20629;-85
2023/11/26 05:13:59;;;;;;;9.63;3.97;;;-0.50;99.90;;;;;;4937294;29;20197;-86
2023/11/26 05:16:25;;;;;;;6.07;3.37;;;-0.50;99.90;;;;;;4919698;29;20196;-86
2023/11/26 05:18:50;;;;;;;4.67;3.27;;;-0.50;99.90;;;;;;4919822;29;20236;-86
2023/11/26 05:21:17;;;;;;;7.33;3.87;;;-0.40;99.90;;;;;;4919865;29;20205;-86
2023/11/26 05:23:43;;;;;;;6.23;3.50;;;-0.40;99.90;;;;;;4919751;29;20281;-87
2023/11/26 05:26:13;;;;;;;6.63;3.60;;;-0.40;99.90;;;;;;4919613;29;20246;-85
2023/11/26 05:28:38;;;;;;;6.77;3.70;;;-0.40;99.90;;;;;;4919566;29;20194;-86
2023/11/26 05:31:04;;;;;;;6.50;4.13;;;-0.40;99.90;;;;;;4919455;29;20198;-86
2023/11/26 05:33:30;;;;;;;7.50;3.83;;;-0.40;99.90;;;;;;4920046;29;20193;-86
2023/11/26 05:35:56;;;;;;;6.83;3.77;;;-0.40;99.90;;;;;;4919846;29;20193;-86
2023/11/26 05:38:22;;;;;;;7.50;3.77;;;-0.40;99.90;;;;;;4919485;29;20635;-86
2023/11/26 05:40:49;;;;;;;5.60;3.97;;;-0.40;99.90;;;;;;4919700;29;20197;-86
2023/11/26 05:43:15;;;;;;;6.40;4.30;;;-0.40;99.90;;;;;;4920124;29;20655;-86
2023/11/26 05:45:41;;;;;;;7.00;4.27;;;-0.40;99.90;;;;;;4919704;29;20189;-86
2023/11/26 05:48:06;;;;;;;8.40;4.13;;;-0.40;99.90;;;;;;4911343;29;20206;-86
2023/11/26 05:50:32;;;;;;;7.43;4.00;;;-0.40;99.90;;;;;;4919677;29;20193;-86
2023/11/26 05:52:58;;;;;;;5.40;3.73;;;-0.40;99.90;;;;;;4919131;29;20230;-85
2023/11/26 05:55:24;;;;;;;7.10;4.17;;;-0.40;99.90;;;;;;4936743;29;20617;-85
2023/11/26 05:57:50;;;;;;;6.57;3.83;;;-0.40;99.90;;;;;;4918859;29;20224;-86
2023/11/26 06:00:15;;;;;;;11.80;3.80;;;-0.40;99.90;;;;;;4919075;29;20248;-85
2023/11/26 06:02:41;;;;;;;5.60;3.93;;;-0.40;99.90;;;;;;4918819;29;20228;-86
2023/11/26 06:05:08;;;;;;;7.43;4.37;;;-0.30;99.90;;;;;;4936499;29;20196;-86
2023/11/26 06:07:34;;;;;;;4.90;3.67;;;-0.40;99.90;;;;;;4918487;29;20248;-86
2023/11/26 06:10:00;;;;;;;7.00;3.90;;;-0.30;99.90;;;;;;4919262;29;20182;-86
2023/11/26 06:12:26;;;;;;;7.77;3.60;;;-0.30;99.90;;;;;;4918823;29;20221;-86
2023/11/26 06:14:52;;;;;;;4.37;3.17;;;-0.30;99.90;;;;;;4919196;29;20273;-86
2023/11/26 06:17:17;;;;;;;7.73;3.90;;;-0.30;99.90;;;;;;4936236;29;20266;-85
2023/11/26 06:19:43;;;;;;;7.40;3.77;;;-0.20;99.90;;;;;;4919065;29;20205;-86
2023/11/26 06:22:09;;;;;;;8.23;3.80;;;-0.30;99.90;;;;;;4918857;29;20250;-85
2023/11/26 06:24:34;;;;;;;6.50;3.37;;;-0.30;99.90;;;;;;4918908;29;20632;-85
2023/11/26 06:27:00;;;;;;;4.90;3.20;;;-0.20;99.90;;;;;;4918952;29;20193;-85
2023/11/26 06:29:26;;;;;;;6.17;3.83;;;-0.20;99.90;;;;;;4918683;29;20580;-86
2023/11/26 06:31:52;;;;;;;9.17;3.93;;;-0.20;99.90;;;;;;4918596;29;20197;-86
2023/11/26 06:34:25;;;;;;;6.60;3.53;;;-0.20;99.90;;;;;;4919431;29;20182;-85
2023/11/26 06:36:51;;;;;;;5.53;3.50;;;-0.20;99.90;;;;;;4936035;29;20185;-85
2023/11/26 06:39:16;;;;;;;7.80;3.20;;;-0.20;99.90;;;;;;4918659;29;20198;-86
2023/11/26 06:41:43;;;;;;;8.50;3.63;;;-0.10;99.90;;;;;;4918948;29;20182;-85
2023/11/26 06:44:09;;;;;;;10.53;3.67;;;-0.20;99.90;;;;;;4935924;29;20625;-86
2023/11/26 06:46:35;;;;;;;8.80;3.73;;;-0.10;99.90;;;;;;4918819;29;20208;-86
2023/11/26 06:49:02;;;;;;;5.57;3.20;;;-0.10;99.90;;;;;;4935839;29;20254;-86
2023/11/26 06:51:28;;;;;;;4.70;3.00;;;-0.10;99.90;;;;;;4918910;29;20193;-85
2023/11/26 06:53:54;;;;;;;6.07;3.13;;;-0.10;99.90;;;;;;4918903;29;20226;-87
2023/11/26 06:56:20;;;;;;;12.50;3.30;;;-0.10;99.90;;;;;;4919120;29;20233;-86
2023/11/26 06:58:46;;;;;;;5.57;3.07;;;-0.10;99.90;;;;;;4920935;29;20244;-86
2023/11/26 07:01:13;;;;;;;8.27;3.30;;;0.00;99.90;;;;;;4922576;29;20186;-86
2023/11/26 07:03:40;;;;;;;4.20;2.87;;;0.00;99.90;;;;;;4922641;29;20580;-86
2023/11/26 07:06:10;;;;;;;4.57;3.23;;;0.00;99.90;;;;;;4922123;29;20222;-86
2023/11/26 07:08:41;;;;;;;6.60;3.53;;;0.00;99.90;;;;;;4921735;29;20205;-87
2023/11/26 07:11:17;;;;;;;4.67;2.80;;;0.10;99.90;;;;;;4922151;29;20189;-86
2023/11/26 07:13:43;;;;;;;4.60;2.90;;;0.10;99.90;;;;;;4922163;29;20189;-86
2023/11/26 07:16:09;;;;;;;5.13;3.23;;;0.10;99.90;;;;;;4921859;29;20651;-86
2023/11/26 07:18:34;;;;;;;4.83;3.13;;;0.20;99.90;;;;;;4922098;29;20209;-85
2023/11/26 07:21:00;;;;;;;3.60;2.90;;;0.20;99.90;;;;;;4939255;29;20189;-86
2023/11/26 07:23:26;;;;;;;8.30;3.37;;;0.20;99.90;;;;;;4921495;29;20186;-85
2023/11/26 07:25:52;;;;;;;5.67;3.20;;;0.20;99.90;;;;;;4938949;29;20237;-85
2023/11/26 07:28:18;;;;;;;7.13;3.10;;;0.20;99.90;;;;;;4921805;29;20245;-86
2023/11/26 07:30:44;;;;;;;5.90;3.70;;;0.20;99.90;;;;;;4921819;29;20190;-86
2023/11/26 07:33:10;;;;;;;6.07;3.10;;;0.20;99.90;;;;;;4922108;29;20201;-87
2023/11/26 07:35:37;;;;;;;4.73;3.20;;;0.20;99.90;;;;;;4921872;29;20190;-86
2023/11/26 07:38:04;;;;;;;4.10;3.03;;;0.20;99.90;;;;;;4938343;29;20205;-86
2023/11/26 07:40:33;;;;;;;7.07;3.30;;;0.20;99.90;;;;;;4922044;29;20193;-86
2023/11/26 07:42:59;;;;;;;4.93;3.37;;;0.20;99.90;;;;;;4921484;29;20198;-86
2023/11/26 07:45:31;;;;;;;7.57;3.40;;;0.20;99.90;;;;;;4921455;29;20186;-86
2023/11/26 07:47:59;;;;;;;5.40;3.23;;;0.20;99.90;;;;;;4921166;29;20186;-85
2023/11/26 07:50:24;;;;;;;5.93;3.33;;;0.30;99.90;;;;;;4921068;29;20269;-86
2023/11/26 07:52:50;;;;;;;5.77;3.70;;;0.30;99.90;;;;;;4915309;29;20297;-87
2023/11/26 07:55:16;;;;;;;8.63;3.80;;;0.30;99.90;;;;;;4921170;29;20181;-86
2023/11/26 07:57:42;;;;;;;6.20;4.40;;;0.40;99.90;;;;;;4918460;29;20206;-89
2023/11/26 08:00:14;;;;;;;9.17;4.10;;;0.40;99.90;;;;;;4938530;29;20185;-88
2023/11/26 08:02:40;;;;;;;7.80;4.10;;;0.50;99.90;;;;;;4918108;29;20253;-86
2023/11/26 08:05:08;;;;;;;7.13;3.80;;;0.50;99.90;;;;;;4915728;29;20269;-86
2023/11/26 08:07:36;;;;;;;6.97;3.93;;;0.50;99.90;;;;;;4916618;29;20226;-86
2023/11/26 08:10:09;;;;;;;9.73;4.30;;;0.60;99.90;;;;;;4914565;29;20230;-86
2023/11/26 08:12:38;;;;;;;5.70;3.90;;;0.60;99.90;;;;;;4938181;29;20243;-86
2023/11/26 08:15:09;;;;;;;7.17;4.37;;;0.60;99.90;;;;;;4921082;29;20197;-86
2023/11/26 08:17:36;;;;;;;7.73;4.37;;;0.70;99.90;;;;;;4920897;29;20226;-86
2023/11/26 08:20:09;;;;;;;6.47;3.93;;;0.70;99.90;;;;;;4917492;29;20197;-86
2023/11/26 08:22:35;;;;;;;7.47;4.30;;;0.70;99.90;;;;;;4915028;29;20613;-85
2023/11/26 08:25:04;;;;;;;10.20;4.07;;;0.70;99.90;;;;;;4913024;29;20608;-86
2023/11/26 08:27:33;;;;;;;10.10;4.03;;;0.70;99.90;;;;;;4917337;29;20665;-87
2023/11/26 08:30:04;;;;;;;8.07;4.50;;;0.70;99.90;;;;;;4920978;29;20519;-86
2023/11/26 08:32:33;;;;;;;9.03;4.57;;;0.70;99.90;;;;;;4919868;29;20182;-86
2023/11/26 08:35:00;;;;;;;8.63;4.57;;;0.80;99.90;;;;;;4921049;29;20189;-87
2023/11/26 08:37:27;;;;;;;6.60;4.33;;;0.80;99.90;;;;;;4915729;29;20202;-86
2023/11/26 08:39:53;;;;;;;9.97;4.10;;;0.80;99.90;;;;;;4918342;29;20529;-86
2023/11/26 08:42:19;;;;;;;9.60;4.70;;;0.90;99.90;;;;;;4920566;29;20195;-88
2023/11/26 08:44:47;;;;;;;11.00;5.27;;;0.90;99.90;;;;;;4920563;29;20276;-86
2023/11/26 08:47:13;;;;;;;11.37;5.43;;;0.90;99.90;;;;;;4920652;29;20225;-86
2023/11/26 08:49:39;;;;;;;9.03;4.90;;;0.90;99.90;;;;;;4920180;29;20196;-86
2023/11/26 08:52:05;;;;;;;8.40;4.70;;;1.00;99.90;;;;;;4919899;29;20189;-86
2023/11/26 08:54:30;;;;;;;10.63;6.03;;;1.10;99.90;;;;;;4920121;29;20189;-87
2023/11/26 08:56:56;;;;;;;13.63;5.13;;;1.20;99.90;;;;;;4920525;29;20385;-86
2023/11/26 08:59:22;;;;;;;11.33;4.90;;;1.30;99.90;;;;;;4919907;29;20217;-87
2023/11/26 09:01:47;;;;;;;9.00;4.80;;;1.30;99.90;;;;;;4920699;29;20185;-88
2023/11/26 09:04:13;;;;;;;6.87;4.93;;;1.40;99.90;;;;;;4919920;29;20617;-88
2023/11/26 09:06:39;;;;;;;9.83;5.30;;;1.40;99.90;;;;;;4913147;29;20237;-88
2023/11/26 09:09:04;;;;;;;7.23;4.57;;;1.50;99.90;;;;;;4920598;29;20194;-87
2023/11/26 09:11:31;;;;;;;10.63;5.00;;;1.50;99.90;;;;;;4914424;29;20187;-92
2023/11/26 09:13:59;;;;;;;5.80;4.40;;;1.60;99.90;;;;;;4919265;29;20257;-94
2023/11/26 09:16:26;;;;;;;9.67;5.03;;;1.60;99.90;;;;;;4920705;29;20189;-94
2023/11/26 09:18:52;;;;;;;8.87;5.20;;;1.60;99.90;;;;;;4920432;29;20661;-93
2023/11/26 09:21:18;;;;;;;7.20;5.13;;;1.60;99.90;;;;;;4920456;29;20190;-94
2023/11/26 09:23:44;;;;;;;6.43;5.00;;;1.60;99.90;;;;;;4919789;29;20289;-90
2023/11/26 09:26:14;;;;;;;7.97;5.03;;;1.60;99.90;;;;;;4920809;29;20197;-93
2023/11/26 09:28:39;;;;;;;6.97;5.07;;;1.60;99.90;;;;;;4920104;29;20648;-92
2023/11/26 09:31:07;;;;;;;9.37;5.07;;;1.60;99.90;;;;;;4920396;29;20189;-89
2023/11/26 09:33:36;;;;;;;9.07;5.17;;;1.70;99.90;;;;;;4919974;29;20186;-90
2023/11/26 09:36:04;;;;;;;8.23;5.40;;;1.60;99.90;;;;;;4920299;29;20193;-87
2023/11/26 09:38:29;;;;;;;9.17;5.40;;;1.70;99.90;;;;;;4920212;29;20217;-89
2023/11/26 09:40:55;;;;;;;7.80;5.00;;;1.70;99.90;;;;;;4916289;29;20193;-88
2023/11/26 09:43:22;;;;;;;8.87;4.77;;;1.80;99.90;;;;;;4913898;29;20200;-88
2023/11/26 09:45:48;;;;;;;8.63;5.27;;;1.80;99.90;;;;;;4919846;29;20564;-87
2023/11/26 09:48:13;;;;;;;7.63;4.53;;;1.90;99.90;;;;;;4919750;29;20249;-87
2023/11/26 09:50:39;;;;;;;6.97;4.70;;;2.00;99.90;;;;;;4920017;29;20190;-87
2023/11/26 09:53:07;;;;;;;9.70;4.53;;;2.00;99.90;;;;;;4919380;29;20190;-88
2023/11/26 09:55:40;;;;;;;7.00;4.10;;;2.10;99.90;;;;;;4919822;29;20194;-87
2023/11/26 09:58:06;;;;;;;6.00;3.43;;;2.20;99.90;;;;;;4919380;29;20223;-86
2023/11/26 10:00:32;;;;;;;9.57;3.97;;;2.20;99.90;;;;;;4920229;29;20285;-91
2023/11/26 10:03:02;;;;;;;7.17;3.67;;;2.30;99.90;;;;;;4919802;29;20198;-90
2023/11/26 10:05:29;;;;;;;9.77;3.83;;;2.30;99.90;;;;;;4919949;29;20190;-88
2023/11/26 10:07:55;;;;;;;9.23;4.23;;;2.40;99.90;;;;;;4919594;29;20301;-90
2023/11/26 10:10:23;;;;;;;15.00;4.37;;;2.40;99.90;;;;;;4919666;29;20621;-90
2023/11/26 10:13:00;;;;;;;5.80;3.50;;;2.30;99.90;;;;;;4912279;29;20308;-88
2023/11/26 10:15:28;;;;;;;10.43;3.87;;;2.40;99.90;;;;;;4919402;29;20270;-88
2023/11/26 10:18:06;;;;;;;6.43;3.30;;;2.40;99.90;;;;;;4919358;29;20295;-92
2023/11/26 10:20:43;;;;;;;5.20;3.30;;;2.50;99.90;;;;;;4919570;29;20233;-90
2023/11/26 10:23:15;;;;;;;5.20;3.63;;;2.50;99.90;;;;;;4919583;29;20245;-90
2023/11/26 10:25:43;;;;;;;7.63;3.73;;;2.60;99.90;;;;;;4919448;29;20622;-91
2023/11/26 10:28:15;;;;;;;7.87;3.20;;;2.70;99.90;;;;;;4919397;29;20193;-93
2023/11/26 10:30:42;;;;;;;9.30;3.33;;;2.70;99.90;;;;;;4919796;29;20193;-92
2023/11/26 10:33:09;;;;;;;10.50;3.17;;;2.70;99.90;;;;;;4920719;29;20190;-89
2023/11/26 10:35:46;;;;;;;5.30;2.70;;;2.60;99.90;;;;;;4923351;29;20604;-88
2023/11/26 10:38:13;;;;;;;5.57;2.70;;;2.60;99.90;;;;;;4915769;29;20616;-88
2023/11/26 10:40:39;;;;;;;3.77;2.67;;;2.70;99.90;;;;;;4923187;29;20232;-85
2023/11/26 10:43:09;;;;;;;7.20;3.00;;;2.80;99.90;;;;;;4939756;29;20636;-92
2023/11/26 10:45:37;;;;;;;10.83;3.23;;;2.70;99.90;;;;;;4922909;29;20190;-89
2023/11/26 10:48:09;;;;;;;8.43;3.00;;;2.80;99.90;;;;;;4922512;29;20193;-87
2023/11/26 10:50:41;;;;;;;6.50;3.20;;;2.80;99.90;;;;;;4922904;29;20236;-84
2023/11/26 10:53:16;;;;;;;5.40;3.10;;;2.80;99.90;;;;;;4922811;29;20233;-91
2023/11/26 10:55:45;;;;;;;9.03;3.50;;;2.80;99.90;;;;;;4922622;29;20613;-85
2023/11/26 10:58:19;;;;;;;8.70;3.40;;;2.80;99.90;;;;;;4922358;29;20657;-86
2023/11/26 11:00:50;;;;;;;6.03;3.13;;;2.80;99.90;;;;;;4922548;29;20279;-89
2023/11/26 11:03:17;;;;;;;9.03;2.93;;;2.90;99.90;;;;;;4922652;29;20323;-90
2023/11/26 11:05:46;;;;;;;5.13;2.87;;;2.90;99.90;;;;;;4922393;29;20185;-86
2023/11/26 11:08:12;;;;;;;7.00;3.20;;;2.90;99.90;;;;;;4922235;29;20205;-87
2023/11/26 11:11:19;;;;;;;5.63;2.93;;;2.90;99.90;;;;;;4922236;29;20201;-87
2023/11/26 11:13:46;;;;;;;6.33;2.93;;;2.90;99.90;;;;;;4920966;29;20193;-87
2023/11/26 11:16:13;;;;;;;5.33;2.83;;;2.90;99.90;;;;;;4922270;29;20280;-85
2023/11/26 11:18:39;;;;;;;10.07;3.50;;;3.00;99.90;;;;;;4922135;29;20224;-90
2023/11/26 11:21:10;;;;;;;7.67;3.47;;;3.00;99.90;;;;;;4939253;29;20180;-90
2023/11/26 11:23:49;;;;;;;6.43;3.37;;;3.00;99.90;;;;;;4922364;29;20265;-85
2023/11/26 11:26:17;;;;;;;7.07;3.37;;;3.10;99.90;;;;;;4932535;29;20524;-87
2023/11/26 11:28:47;;;;;;;7.80;3.13;;;3.10;99.90;;;;;;4921590;29;20237;-87
2023/11/26 11:31:21;;;;;;;7.57;3.53;;;3.10;99.90;;;;;;4922328;29;20193;-86
2023/11/26 11:34:05;;;;;;;7.53;3.70;;;3.10;99.90;;;;;;4921708;29;20200;-86
2023/11/26 11:36:49;;;;;;;11.30;3.80;;;3.10;99.90;;;;;;4921981;29;20222;-90
2023/11/26 11:39:16;;;;;;;9.87;3.70;;;3.10;99.90;;;;;;4903182;29;20222;-88
2023/11/26 11:42:00;;;;;;;11.50;3.83;;;3.10;99.90;;;;;;4918767;29;20185;-86
2023/11/26 11:44:26;;;;;;;9.23;4.20;;;3.20;99.90;;;;;;4921709;29;20198;-87
2023/11/26 11:46:52;;;;;;;7.83;4.53;;;3.20;99.90;;;;;;4915500;29;20672;-88
2023/11/26 11:49:18;;;;;;;9.50;4.57;;;3.20;99.90;;;;;;4920842;29;20708;-90
2023/11/26 11:51:43;;;;;;;7.67;4.60;;;3.20;99.90;;;;;;4911320;29;20186;-87
2023/11/26 11:54:09;;;;;;;10.27;4.93;;;3.20;99.90;;;;;;4919700;29;20204;-85
2023/11/26 11:56:47;;;;;;;8.27;4.90;;;3.20;99.90;;;;;;4938341;29;20228;-85
2023/11/26 11:59:13;;;;;;;10.00;4.97;;;3.30;99.90;;;;;;4913074;29;20225;-87
2023/11/26 12:01:40;;;;;;;9.47;5.30;;;3.30;99.90;;;;;;4938026;29;20186;-86
2023/11/26 12:04:06;;;;;;;8.50;4.67;;;3.40;99.90;;;;;;4921374;29;20194;-86
2023/11/26 12:06:33;;;;;;;7.80;4.73;;;3.40;99.90;;;;;;4937233;29;20252;-90
2023/11/26 12:09:01;;;;;;;9.30;5.50;;;3.40;99.90;;;;;;4919298;29;20680;-86
2023/11/26 12:11:27;;;;;;;9.93;5.57;;;3.40;99.90;;;;;;4921044;29;20198;-90
2023/11/26 12:13:55;;;;;;;8.73;4.80;;;3.30;99.90;;;;;;4937721;29;20197;-86
2023/11/26 12:16:22;;;;;;;10.87;5.03;;;3.30;99.90;;;;;;4920963;29;20201;-87
2023/11/26 12:18:57;;;;;;;8.27;4.97;;;3.20;99.90;;;;;;4935770;29;20221;-87
2023/11/26 12:21:23;;;;;;;7.70;5.03;;;3.20;99.90;;;;;;4913575;29;20190;-90
2023/11/26 12:23:50;;;;;;;9.90;5.80;;;3.10;99.90;;;;;;4937713;29;20186;-87
2023/11/26 12:26:16;;;;;;;14.47;5.37;;;3.10;99.90;;;;;;4921119;29;20193;-87
2023/11/26 12:28:46;;;;;;;10.43;6.03;;;3.10;99.90;;;;;;4920600;29;20208;-86
2023/11/26 12:31:14;;;;;;;9.17;5.83;;;3.00;99.90;;;;;;4935650;29;20231;-85
2023/11/26 12:33:43;;;;;;;8.07;5.80;;;3.10;99.90;;;;;;4915738;29;20560;-85
2023/11/26 12:36:18;;;;;;;9.07;5.67;;;3.10;99.90;;;;;;4921086;29;20211;-87
2023/11/26 12:38:44;;;;;;;8.67;5.87;;;3.10;99.90;;;;;;4918993;29;20276;-85
2023/11/26 12:41:11;;;;;;;9.77;6.20;;;3.10;99.90;;;;;;4920606;29;20201;-87
2023/11/26 12:43:39;;;;;;;8.70;5.77;;;3.10;99.90;;;;;;4920600;29;20288;-88
2023/11/26 12:46:20;;;;;;;8.50;5.23;;;3.10;99.90;;;;;;4919849;29;20326;-86
2023/11/26 12:48:47;;;;;;;10.40;5.57;;;3.10;99.90;;;;;;4920552;29;20181;-86
2023/11/26 12:51:16;;;;;;;7.70;5.47;;;3.20;99.90;;;;;;4917713;29;20246;-86
2023/11/26 12:53:42;;;;;;;8.10;5.30;;;3.20;99.90;;;;;;4937423;29;20177;-87
2023/11/26 12:56:09;;;;;;;8.10;5.30;;;3.20;99.90;;;;;;4926407;29;20274;-87
2023/11/26 12:58:35;;;;;;;12.40;5.90;;;3.20;99.90;;;;;;4920276;29;20250;-87